createdAt,value
2019-01-18T00:01:35.664Z,99306.69
2019-01-18T00:04:03.277Z,99305.86
2019-01-18T00:06:30.905Z,99311.62
2019-01-18T00:08:58.529Z,99312.46
2019-01-18T00:11:26.413Z,99322.67
2019-01-18T00:13:54.400Z,99320.96
2019-01-18T00:16:22.359Z,99331.78
2019-01-18T00:18:50.327Z,99334.38
2019-01-18T00:21:18.291Z,99334.78
2019-01-18T00:23:46.262Z,99344.16
2019-01-18T00:26:14.233Z,99351.05
2019-01-18T00:28:42.199Z,99355.50
2019-01-18T00:31:10.170Z,99357.40
2019-01-18T00:33:38.142Z,99352.86
2019-01-18T00:36:06.024Z,99353.95
2019-01-18T00:38:33.985Z,99357.78
2019-01-18T00:41:01.950Z,99352.15
2019-01-18T00:43:29.916Z,99354.83
2019-01-18T00:45:57.890Z,99358.34
2019-01-18T00:48:25.855Z,99357.92
2019-01-18T00:50:53.724Z,99359.33
2019-01-18T00:53:21.351Z,99357.87
2019-01-18T00:55:49.258Z,99368.20
2019-01-18T00:58:16.882Z,99370.63
2019-01-18T01:00:44.789Z,99370.67
2019-01-18T01:03:12.751Z,99372.25
2019-01-18T01:05:40.365Z,99385.09
2019-01-18T01:08:08.062Z,99380.92
2019-01-18T01:10:35.948Z,99389.59
2019-01-18T01:13:03.916Z,99391.31
2019-01-18T01:15:31.886Z,99395.54
2019-01-18T01:17:59.515Z,99391.80
2019-01-18T01:20:27.431Z,99400.25
2019-01-18T01:22:55.381Z,99401.08
2019-01-18T01:25:23.372Z,99408.78
2019-01-18T01:27:50.994Z,99404.34
2019-01-18T01:30:18.883Z,99403.55
2019-01-18T01:32:46.855Z,99413.09
2019-01-18T01:35:14.545Z,99416.17
2019-01-18T01:37:42.482Z,99423.44
2019-01-18T01:40:10.455Z,99427.58
2019-01-18T01:42:38.424Z,99436.98
2019-01-18T01:45:06.396Z,99434.09
2019-01-18T01:47:34.341Z,99438.75
2019-01-18T01:50:02.230Z,99437.30
2019-01-18T01:52:30.198Z,99443.23
2019-01-18T01:54:58.171Z,99441.48
2019-01-18T01:57:26.140Z,99461.89
2019-01-18T01:59:53.760Z,99454.63
2019-01-18T02:02:21.696Z,99455.03
2019-01-18T02:04:49.317Z,99460.66
2019-01-18T02:07:16.933Z,99456.69
2019-01-18T02:09:44.891Z,99465.19
2019-01-18T02:12:12.836Z,99460.97
2019-01-18T02:14:40.802Z,99467.83
2019-01-18T02:17:08.786Z,99467.13
2019-01-18T02:19:36.738Z,99472.70
2019-01-18T02:22:04.358Z,99481.80
2019-01-18T02:24:31.982Z,99475.45
2019-01-18T02:26:59.930Z,99477.80
2019-01-18T02:29:27.921Z,99483.37
2019-01-18T02:31:55.878Z,99489.51
2019-01-18T02:34:23.568Z,99492.31
2019-01-18T02:36:51.207Z,99499.23
2019-01-18T02:39:18.805Z,99498.27
2019-01-18T02:41:46.731Z,99501.56
2019-01-18T02:44:14.712Z,99503.77
2019-01-18T02:46:42.668Z,99504.39
2019-01-18T02:49:10.363Z,99506.48
2019-01-18T02:51:38.298Z,99504.81
2019-01-18T02:54:05.934Z,99514.56
2019-01-18T02:56:33.614Z,99520.45
2019-01-18T02:59:01.588Z,99523.55
2019-01-18T03:01:29.563Z,99524.67
2019-01-18T03:03:57.530Z,99525.95
2019-01-18T03:06:25.501Z,99533.27
2019-01-18T03:08:53.129Z,99527.73
2019-01-18T03:11:20.745Z,99535.83
2019-01-18T03:13:49.015Z,99537.59
2019-01-18T03:16:16.968Z,99532.34
2019-01-18T03:18:44.586Z,99551.33
2019-01-18T03:21:12.208Z,99542.39
2019-01-18T03:23:40.162Z,99547.55
2019-01-18T03:26:07.769Z,99542.69
2019-01-18T03:28:35.713Z,99554.90
2019-01-18T03:31:03.345Z,99553.05
2019-01-18T03:33:30.957Z,99553.30
2019-01-18T03:35:58.884Z,99551.00
2019-01-18T03:38:26.870Z,99555.61
2019-01-18T03:40:54.823Z,99557.70
2019-01-18T03:43:22.448Z,99559.92
2019-01-18T03:45:50.350Z,99558.25
2019-01-18T03:48:17.975Z,99556.59
2019-01-18T03:50:45.881Z,99569.88
2019-01-18T03:53:13.858Z,99561.29
2019-01-18T03:55:41.816Z,99575.22
2019-01-18T03:58:09.685Z,99570.90
2019-01-18T04:00:37.309Z,99578.95
2019-01-18T04:03:05.230Z,99582.23
2019-01-18T04:05:32.847Z,99583.20
2019-01-18T04:08:00.762Z,99596.89
2019-01-18T04:10:28.385Z,99591.73
2019-01-18T04:12:56.007Z,99597.47
2019-01-18T04:15:24.204Z,99602.14
2019-01-18T04:17:51.828Z,99610.03
2019-01-18T04:20:19.777Z,99614.50
2019-01-18T04:22:47.821Z,99614.59
2019-01-18T04:25:18.690Z,99618.66
2019-01-18T04:27:46.676Z,99618.72
2019-01-18T04:30:14.621Z,99621.52
2019-01-18T04:32:42.510Z,99633.47
2019-01-18T04:35:10.211Z,99634.98
2019-01-18T04:37:37.831Z,99633.72
2019-01-18T04:40:05.456Z,99638.19
2019-01-18T04:42:33.355Z,99639.95
2019-01-18T04:45:01.317Z,99645.49
2019-01-18T04:47:29.140Z,99649.41
2019-01-18T04:49:57.067Z,99650.39
2019-01-18T04:52:24.688Z,99650.92
2019-01-18T04:54:52.318Z,99647.83
2019-01-18T04:57:19.942Z,99665.59
2019-01-18T04:59:47.901Z,99670.05
2019-01-18T05:02:15.515Z,99686.29
2019-01-18T05:04:43.137Z,99694.68
2019-01-18T05:07:10.755Z,99688.39
2019-01-18T05:09:38.653Z,99695.41
2019-01-18T05:12:06.633Z,99706.61
2019-01-18T05:14:34.592Z,99713.08
2019-01-18T05:17:02.214Z,99726.21
2019-01-18T05:19:30.120Z,99735.81
2019-01-18T05:21:58.099Z,99745.09
2019-01-18T05:24:25.721Z,99764.12
2019-01-18T05:26:53.621Z,99784.67
2019-01-18T05:29:21.592Z,99797.13
2019-01-18T05:31:49.564Z,99796.14
2019-01-18T05:34:17.182Z,99807.20
2019-01-18T05:36:44.800Z,99815.34
2019-01-18T05:39:12.757Z,99823.47
2019-01-18T05:41:40.726Z,99839.06
2019-01-18T05:44:08.694Z,99847.09
2019-01-18T05:46:36.314Z,99860.80
2019-01-18T05:49:04.240Z,99860.70
2019-01-18T05:51:31.881Z,99877.81
2019-01-18T05:53:59.865Z,99880.78
2019-01-18T05:56:27.827Z,99885.51
2019-01-18T05:58:55.440Z,99891.09
2019-01-18T06:01:23.300Z,99898.33
2019-01-18T06:03:50.992Z,99902.45
2019-01-18T06:06:18.605Z,99910.95
2019-01-18T06:08:46.562Z,99915.66
2019-01-18T06:11:14.251Z,99924.58
2019-01-18T06:13:42.178Z,99923.29
2019-01-18T06:16:10.152Z,99928.50
2019-01-18T06:18:38.232Z,99941.61
2019-01-18T06:21:05.886Z,99937.41
2019-01-18T06:23:33.863Z,99941.01
2019-01-18T06:26:01.820Z,99948.44
2019-01-18T06:28:29.793Z,99951.85
2019-01-18T06:31:01.691Z,99961.75
2019-01-18T06:33:27.384Z,99957.54
2019-01-18T06:35:55.337Z,99960.48
2019-01-18T06:38:23.308Z,99967.52
2019-01-18T06:40:51.798Z,99969.77
2019-01-18T06:43:19.759Z,99970.55
2019-01-18T06:45:47.703Z,99971.24
2019-01-18T06:48:19.626Z,99983.27
2019-01-18T06:50:47.557Z,99976.81
2019-01-18T06:53:15.836Z,99992.08
2019-01-18T06:55:43.806Z,99989.64
2019-01-18T06:58:11.689Z,100001.77
2019-01-18T07:00:39.644Z,100005.09
2019-01-18T07:03:07.262Z,100007.95
2019-01-18T07:05:35.177Z,100019.98
2019-01-18T07:08:03.143Z,100013.70
2019-01-18T07:10:31.111Z,100024.98
2019-01-18T07:12:58.733Z,100044.06
2019-01-18T07:15:26.655Z,100043.56
2019-01-18T07:17:54.921Z,100049.72
2019-01-18T07:20:23.708Z,100049.25
2019-01-18T07:22:51.678Z,100061.59
2019-01-18T07:25:19.646Z,100064.04
2019-01-18T07:27:47.265Z,100074.80
2019-01-18T07:30:15.175Z,100067.26
2019-01-18T07:32:43.151Z,100071.93
2019-01-18T07:35:11.114Z,100077.02
2019-01-18T07:37:39.090Z,100086.92
2019-01-18T07:40:07.059Z,100088.69
2019-01-18T07:42:34.674Z,100084.84
2019-01-18T07:45:02.372Z,100090.93
2019-01-18T07:47:29.993Z,100101.11
2019-01-18T07:49:57.914Z,100109.62
2019-01-18T07:52:25.879Z,100119.23
2019-01-18T07:54:53.849Z,100117.84
2019-01-18T07:57:21.827Z,100132.34
2019-01-18T07:59:49.442Z,100132.14
2019-01-18T08:02:17.346Z,100144.98
2019-01-18T08:04:45.321Z,100150.15
2019-01-18T08:07:14.927Z,100147.88
2019-01-18T08:09:42.549Z,100147.30
2019-01-18T08:12:10.454Z,100153.66
2019-01-18T08:14:38.425Z,100166.18
2019-01-18T08:17:06.394Z,100171.92
2019-01-18T08:19:34.363Z,100181.02
2019-01-18T08:22:01.990Z,100179.94
2019-01-18T08:24:29.900Z,100187.89
2019-01-18T08:26:57.519Z,100189.97
2019-01-18T08:29:25.131Z,100200.68
2019-01-18T08:31:52.775Z,100206.77
2019-01-18T08:34:20.397Z,100204.35
2019-01-18T08:36:48.030Z,100219.05
2019-01-18T08:39:15.646Z,100225.59
2019-01-18T08:41:43.532Z,100232.53
2019-01-18T08:44:11.498Z,100232.53
2019-01-18T08:46:39.470Z,100243.01
2019-01-18T08:49:07.095Z,100249.25
2019-01-18T08:51:34.998Z,100267.67
2019-01-18T08:54:02.869Z,100263.56
2019-01-18T08:56:30.838Z,100277.81
2019-01-18T08:58:58.456Z,100279.73
2019-01-18T09:01:26.367Z,100287.69
2019-01-18T09:03:54.339Z,100290.98
2019-01-18T09:06:22.310Z,100302.63
2019-01-18T09:08:49.936Z,100302.92
2019-01-18T09:11:17.857Z,100320.79
2019-01-18T09:13:45.462Z,100330.55
2019-01-18T09:16:13.365Z,100325.78
2019-01-18T09:18:40.994Z,100338.74
2019-01-18T09:21:08.895Z,100343.34
2019-01-18T09:23:36.515Z,100352.45
2019-01-18T09:26:04.142Z,100360.52
2019-01-18T09:28:32.087Z,100368.65
2019-01-18T09:31:00.067Z,100372.52
2019-01-18T09:33:27.689Z,100377.59
2019-01-18T09:35:55.348Z,100385.94
2019-01-18T09:38:23.247Z,100395.19
2019-01-18T09:40:50.862Z,100398.06
2019-01-18T09:43:18.778Z,100405.09
2019-01-18T09:45:46.393Z,100402.76
2019-01-18T09:48:14.306Z,100414.16
2019-01-18T09:50:41.940Z,100419.33
2019-01-18T09:53:09.855Z,100422.25
2019-01-18T09:55:37.471Z,100421.16
2019-01-18T09:58:05.369Z,100425.09
2019-01-18T10:00:33.339Z,100423.87
2019-01-18T10:03:01.308Z,100433.78
2019-01-18T10:05:28.921Z,100426.20
2019-01-18T10:07:56.838Z,100432.55
2019-01-18T10:10:24.457Z,100439.25
2019-01-18T10:12:52.369Z,100444.34
2019-01-18T10:15:19.989Z,100440.91
2019-01-18T10:17:47.915Z,100441.83
2019-01-18T10:20:15.549Z,100447.22
2019-01-18T10:22:43.422Z,100447.08
2019-01-18T10:25:11.290Z,100449.97
2019-01-18T10:27:39.268Z,100457.77
2019-01-18T10:30:07.231Z,100460.10
2019-01-18T10:32:35.199Z,100455.40
2019-01-18T10:35:03.169Z,100457.05
2019-01-18T10:37:31.141Z,100451.84
2019-01-18T10:39:58.786Z,100461.03
2019-01-18T10:42:26.411Z,100459.94
2019-01-18T10:44:54.335Z,100464.25
2019-01-18T10:47:22.303Z,100465.45
2019-01-18T10:49:50.270Z,100471.16
2019-01-18T10:52:18.245Z,100476.03
2019-01-18T10:54:45.859Z,100482.70
2019-01-18T10:57:13.773Z,100473.37
2019-01-18T10:59:41.402Z,100470.81
2019-01-18T11:02:09.312Z,100475.16
2019-01-18T11:04:37.267Z,100477.98
2019-01-18T11:07:05.067Z,100473.48
2019-01-18T11:09:32.689Z,100482.47
2019-01-18T11:12:00.666Z,100479.20
2019-01-18T11:14:28.636Z,100490.39
2019-01-18T11:16:56.909Z,100487.11
2019-01-18T11:19:24.808Z,100485.97
2019-01-18T11:21:52.746Z,100497.43
2019-01-18T11:24:20.719Z,100507.45
2019-01-18T11:26:48.357Z,100499.09
2019-01-18T11:29:15.984Z,100505.72
2019-01-18T11:31:43.910Z,100506.99
2019-01-18T11:34:11.878Z,100506.48
2019-01-18T11:36:39.852Z,100510.48
2019-01-18T11:39:07.823Z,100512.45
2019-01-18T11:41:35.795Z,100507.14
2019-01-18T11:44:03.795Z,100509.66
2019-01-18T11:46:31.747Z,100508.26
2019-01-18T11:48:59.724Z,100511.43
2019-01-18T11:51:27.683Z,100507.92
2019-01-18T11:53:55.645Z,100514.70
2019-01-18T11:56:23.623Z,100508.59
2019-01-18T11:58:51.579Z,100517.89
2019-01-18T12:01:19.547Z,100516.23
2019-01-18T12:03:47.528Z,100518.66
2019-01-18T12:06:15.382Z,100527.63
2019-01-18T12:08:43.002Z,100511.48
2019-01-18T12:11:10.915Z,100517.28
2019-01-18T12:13:38.887Z,100525.50
2019-01-18T12:16:06.507Z,100532.11
2019-01-18T12:18:34.139Z,100531.29
2019-01-18T12:21:01.862Z,100535.83
2019-01-18T12:23:29.841Z,100531.50
2019-01-18T12:25:57.476Z,100545.63
2019-01-18T12:28:25.371Z,100544.23
2019-01-18T12:30:53.345Z,100543.16
2019-01-18T12:33:21.309Z,100547.78
2019-01-18T12:35:49.378Z,100544.52
2019-01-18T12:38:17.011Z,100548.98
2019-01-18T12:40:44.909Z,100548.05
2019-01-18T12:43:12.883Z,100560.27
2019-01-18T12:45:41.598Z,100556.79
2019-01-18T12:48:09.745Z,100558.78
2019-01-18T12:50:37.710Z,100556.01
2019-01-18T12:53:05.352Z,100557.33
2019-01-18T12:55:33.241Z,100550.81
2019-01-18T12:58:00.955Z,100555.69
2019-01-18T13:00:28.875Z,100557.12
2019-01-18T13:02:56.507Z,100554.75
2019-01-18T13:05:24.130Z,100550.75
2019-01-18T13:07:52.078Z,100554.16
2019-01-18T13:10:20.038Z,100558.29
2019-01-18T13:12:47.655Z,100554.16
2019-01-18T13:15:15.565Z,100558.30
2019-01-18T13:17:43.530Z,100563.47
2019-01-18T13:20:11.500Z,100574.36
2019-01-18T13:22:39.477Z,100567.37
2019-01-18T13:25:07.441Z,100568.02
2019-01-18T13:27:35.416Z,100573.07
2019-01-18T13:30:03.396Z,100570.91
2019-01-18T13:32:31.024Z,100567.02
2019-01-18T13:34:59.011Z,100570.98
2019-01-18T13:37:26.984Z,100581.69
2019-01-18T13:39:54.950Z,100569.68
2019-01-18T13:42:22.572Z,100576.42
2019-01-18T13:44:50.217Z,100576.98
2019-01-18T13:47:19.980Z,100573.88
2019-01-18T13:49:47.492Z,100575.49
2019-01-18T13:52:15.415Z,100578.42
2019-01-18T13:54:43.048Z,100578.52
2019-01-18T13:57:12.257Z,100586.22
2019-01-18T13:59:40.242Z,100584.08
2019-01-18T14:02:07.867Z,100591.48
2019-01-18T14:04:35.510Z,100592.88
2019-01-18T14:07:03.434Z,100591.66
2019-01-18T14:09:31.424Z,100595.64
2019-01-18T14:11:59.382Z,100596.41
2019-01-18T14:14:27.346Z,100594.20
2019-01-18T14:16:55.314Z,100598.02
2019-01-18T14:19:22.938Z,100599.11
2019-01-18T14:21:50.850Z,100602.09
2019-01-18T14:24:18.493Z,100599.70
2019-01-18T14:26:46.105Z,100602.59
2019-01-18T14:29:13.735Z,100607.52
2019-01-18T14:31:42.009Z,100609.38
2019-01-18T14:34:09.980Z,100603.43
2019-01-18T14:36:38.248Z,100606.11
2019-01-18T14:39:06.565Z,100610.78
2019-01-18T14:41:34.186Z,100609.00
2019-01-18T14:44:02.164Z,100609.30
2019-01-18T14:46:29.778Z,100620.39
2019-01-18T14:48:57.401Z,100616.95
2019-01-18T14:51:25.360Z,100617.88
2019-01-18T14:53:53.331Z,100613.87
2019-01-18T14:56:20.958Z,100618.17
2019-01-18T14:58:48.579Z,100614.54
2019-01-18T15:01:16.203Z,100618.70
2019-01-18T15:03:44.102Z,100617.08
2019-01-18T15:06:12.045Z,100615.88
2019-01-18T15:08:39.678Z,100618.06
2019-01-18T15:11:07.290Z,100623.58
2019-01-18T15:13:35.241Z,100629.60
2019-01-18T15:16:02.863Z,100622.53
2019-01-18T15:18:30.764Z,100630.47
2019-01-18T15:20:58.757Z,100632.50
2019-01-18T15:23:26.380Z,100628.71
2019-01-18T15:25:54.012Z,100628.86
2019-01-18T15:28:21.929Z,100640.79
2019-01-18T15:30:49.559Z,100636.15
2019-01-18T15:33:17.183Z,100634.78
2019-01-18T15:35:45.126Z,100635.62
2019-01-18T15:38:12.773Z,100635.08
2019-01-18T15:40:41.392Z,100646.36
2019-01-18T15:43:10.266Z,100641.77
2019-01-18T15:45:38.227Z,100644.39
2019-01-18T15:48:06.198Z,100644.31
2019-01-18T15:50:34.167Z,100645.36
2019-01-18T15:53:01.797Z,100640.72
2019-01-18T15:55:29.701Z,100646.02
2019-01-18T15:57:57.666Z,100646.39
2019-01-18T16:00:25.648Z,100652.38
2019-01-18T16:02:53.609Z,100651.15
2019-01-18T16:05:21.574Z,100655.05
2019-01-18T16:07:49.551Z,100641.10
2019-01-18T16:10:17.183Z,100638.46
2019-01-18T16:12:44.809Z,100649.75
2019-01-18T16:15:12.444Z,100648.38
2019-01-18T16:17:40.078Z,100636.96
2019-01-18T16:20:07.715Z,100641.15
2019-01-18T16:22:35.623Z,100642.31
2019-01-18T16:25:03.261Z,100644.48
2019-01-18T16:27:30.885Z,100640.53
2019-01-18T16:29:58.597Z,100639.45
2019-01-18T16:32:26.483Z,100642.66
2019-01-18T16:34:54.118Z,100643.09
2019-01-18T16:37:22.107Z,100644.98
2019-01-18T16:39:50.083Z,100645.59
2019-01-18T16:42:18.048Z,100642.68
2019-01-18T16:44:46.016Z,100644.78
2019-01-18T16:47:14.923Z,100648.38
2019-01-18T16:49:42.881Z,100658.26
2019-01-18T16:52:10.876Z,100656.98
2019-01-18T16:54:38.527Z,100663.23
2019-01-18T16:57:06.486Z,100661.88
2019-01-18T16:59:34.130Z,100667.22
2019-01-18T17:02:02.013Z,100670.19
2019-01-18T17:04:29.658Z,100665.14
2019-01-18T17:06:57.358Z,100666.42
2019-01-18T17:09:25.306Z,100665.96
2019-01-18T17:11:53.296Z,100668.13
2019-01-18T17:14:21.266Z,100666.09
2019-01-18T17:16:49.213Z,100670.87
2019-01-18T17:19:17.492Z,100668.58
2019-01-18T17:21:45.133Z,100669.34
2019-01-18T17:24:13.021Z,100672.77
2019-01-18T17:26:40.987Z,100683.57
2019-01-18T17:29:08.960Z,100679.59
2019-01-18T17:31:36.931Z,100682.09
2019-01-18T17:34:04.903Z,100688.23
2019-01-18T17:36:32.872Z,100686.07
2019-01-18T17:39:00.860Z,100682.69
2019-01-18T17:41:28.499Z,100693.45
2019-01-18T17:43:56.123Z,100701.07
2019-01-18T17:46:24.031Z,100694.09
2019-01-18T17:48:51.665Z,100698.02
2019-01-18T17:51:19.300Z,100697.73
2019-01-18T17:53:47.230Z,100697.36
2019-01-18T17:56:14.884Z,100696.20
2019-01-18T17:58:42.516Z,100702.70
2019-01-18T18:01:10.152Z,100697.12
2019-01-18T18:03:43.467Z,100699.38
2019-01-18T18:06:07.437Z,100707.52
2019-01-18T18:08:35.077Z,100707.74
2019-01-18T18:11:03.837Z,100717.73
2019-01-18T18:13:32.027Z,100723.47
2019-01-18T18:15:59.975Z,100717.62
2019-01-18T18:18:27.608Z,100720.42
2019-01-18T18:20:55.504Z,100731.11
2019-01-18T18:23:23.132Z,100726.53
2019-01-18T18:25:50.767Z,100726.05
2019-01-18T18:28:18.392Z,100726.79
2019-01-18T18:30:46.081Z,100733.62
2019-01-18T18:33:14.019Z,100733.66
2019-01-18T18:35:41.996Z,100736.43
2019-01-18T18:38:09.960Z,100735.16
2019-01-18T18:40:37.932Z,100731.73
2019-01-18T18:43:05.899Z,100731.36
2019-01-18T18:45:33.524Z,100733.14
2019-01-18T18:48:01.533Z,100728.32
2019-01-18T18:50:29.500Z,100731.34
2019-01-18T18:52:57.472Z,100729.53
2019-01-18T18:55:25.463Z,100725.52
2019-01-18T18:57:53.409Z,100724.54
2019-01-18T19:00:21.382Z,100721.22
2019-01-18T19:02:49.350Z,100725.54
2019-01-18T19:05:17.322Z,100723.38
2019-01-18T19:07:45.287Z,100729.09
2019-01-18T19:10:13.264Z,100723.25
2019-01-18T19:12:41.225Z,100722.36
2019-01-18T19:15:09.200Z,100718.58
2019-01-18T19:17:37.165Z,100720.20
2019-01-18T19:20:04.788Z,100723.98
2019-01-18T19:22:32.701Z,100729.84
2019-01-18T19:25:00.663Z,100720.44
2019-01-18T19:27:28.303Z,100721.98
2019-01-18T19:29:56.218Z,100730.45
2019-01-18T19:32:24.167Z,100731.10
2019-01-18T19:34:52.135Z,100730.33
2019-01-18T19:37:20.415Z,100722.41
2019-01-18T19:39:48.040Z,100726.66
2019-01-18T19:42:15.941Z,100724.87
2019-01-18T19:44:43.570Z,100724.41
2019-01-18T19:47:11.471Z,100726.66
2019-01-18T19:49:39.472Z,100727.33
2019-01-18T19:52:07.097Z,100727.16
2019-01-18T19:54:34.719Z,100732.43
2019-01-18T19:57:02.636Z,100724.97
2019-01-18T19:59:30.256Z,100727.10
2019-01-18T20:01:57.957Z,100728.34
2019-01-18T20:04:25.891Z,100728.28
2019-01-18T20:06:53.793Z,100732.27
2019-01-18T20:09:21.761Z,100732.34
2019-01-18T20:11:49.393Z,100742.54
2019-01-18T20:14:17.600Z,100736.28
2019-01-18T20:16:45.567Z,100743.24
2019-01-18T20:19:13.539Z,100734.38
2019-01-18T20:21:41.507Z,100741.72
2019-01-18T20:24:09.141Z,100739.25
2019-01-18T20:26:36.775Z,100740.64
2019-01-18T20:29:04.699Z,100744.60
2019-01-18T20:31:32.670Z,100735.09
2019-01-18T20:34:00.309Z,100739.19
2019-01-18T20:36:27.942Z,100738.26
2019-01-18T20:38:55.576Z,100744.52
2019-01-18T20:41:23.206Z,100743.47
2019-01-18T20:43:51.087Z,100747.86
2019-01-18T20:46:19.057Z,100737.92
2019-01-18T20:48:47.022Z,100750.28
2019-01-18T20:51:15.009Z,100755.27
2019-01-18T20:53:42.684Z,100751.20
2019-01-18T20:56:10.630Z,100758.63
2019-01-18T20:58:38.599Z,100769.31
2019-01-18T21:01:06.568Z,100762.27
2019-01-18T21:03:34.202Z,100765.87
2019-01-18T21:06:02.201Z,100766.79
2019-01-18T21:08:29.847Z,100764.52
2019-01-18T21:10:57.842Z,100765.75
2019-01-18T21:13:25.479Z,100773.19
2019-01-18T21:15:53.113Z,100764.84
2019-01-18T21:18:20.750Z,100769.80
2019-01-18T21:20:48.705Z,100778.28
2019-01-18T21:23:16.683Z,100769.85
2019-01-18T21:25:44.303Z,100777.13
2019-01-18T21:28:11.933Z,100778.92
2019-01-18T21:30:39.564Z,100780.30
2019-01-18T21:33:07.817Z,100778.19
2019-01-18T21:35:35.806Z,100780.19
2019-01-18T21:38:03.756Z,100779.03
2019-01-18T21:40:31.743Z,100775.28
2019-01-18T21:42:59.690Z,100772.06
2019-01-18T21:45:27.346Z,100782.83
2019-01-18T21:47:54.958Z,100776.91
2019-01-18T21:50:22.593Z,100777.13
2019-01-18T21:52:50.562Z,100767.26
2019-01-18T21:55:18.521Z,100772.80
2019-01-18T21:57:46.514Z,100775.38
2019-01-18T22:00:14.461Z,100769.87
2019-01-18T22:02:42.103Z,100776.13
2019-01-18T22:05:10.091Z,100783.44
2019-01-18T22:07:37.730Z,100778.23
2019-01-18T22:10:05.730Z,100782.50
2019-01-18T22:12:39.349Z,100778.27
2019-01-18T22:15:02.707Z,100782.77
2019-01-18T22:17:30.343Z,100778.92
2019-01-18T22:19:58.324Z,100769.86
2019-01-18T22:22:26.291Z,100783.36
2019-01-18T22:24:54.562Z,100780.62
2019-01-18T22:27:22.529Z,100783.82
2019-01-18T22:29:50.176Z,100777.92
2019-01-18T22:32:18.166Z,100781.97
2019-01-18T22:34:47.792Z,100781.41
2019-01-18T22:37:16.670Z,100776.60
2019-01-18T22:39:44.633Z,100780.19
2019-01-18T22:42:12.277Z,100780.13
2019-01-18T22:44:40.266Z,100770.23
2019-01-18T22:47:07.908Z,100774.88
2019-01-18T22:49:35.899Z,100771.61
2019-01-18T22:52:03.867Z,100777.23
2019-01-18T22:54:31.864Z,100782.46
2019-01-18T22:56:59.508Z,100782.59
2019-01-18T22:59:27.470Z,100780.76
2019-01-18T23:01:55.444Z,100782.34
2019-01-18T23:04:23.087Z,100773.44
2019-01-18T23:06:50.715Z,100776.44
2019-01-18T23:09:18.632Z,100781.72
2019-01-18T23:11:46.292Z,100781.92
2019-01-18T23:14:13.936Z,100782.02
2019-01-18T23:16:41.570Z,100779.13
2019-01-18T23:19:09.484Z,100781.82
2019-01-18T23:21:37.459Z,100775.97
2019-01-18T23:24:06.241Z,100776.17
2019-01-18T23:26:34.320Z,100782.02
2019-01-18T23:29:01.954Z,100772.65
2019-01-18T23:31:29.583Z,100775.65
2019-01-18T23:33:57.509Z,100772.37
2019-01-18T23:36:25.480Z,100773.22
2019-01-18T23:38:53.448Z,100771.68
2019-01-18T23:41:21.415Z,100769.75
2019-01-18T23:43:49.052Z,100762.93
2019-01-18T23:46:16.942Z,100768.94
2019-01-18T23:48:44.932Z,100767.23
2019-01-18T23:51:12.902Z,100762.25
2019-01-18T23:53:44.481Z,100758.33
2019-01-18T23:56:10.251Z,100756.41
2019-01-18T23:58:38.224Z,100754.59
